M/V Alton St. Amant — WDE7604 — position and weather

sailwx.info

Track history (hours):
 
Tides and Currents Weather Stations Pressure Air Temp Water Temp Dewpoint Dewpoint Depression Visibility Wind Speed Wind Dir Waves Ship Positions

M/V Alton St. Amant

Owner: The Barge Investment Group Five, L.L.C., Harahan, LA. More information available from US FCC via Universal Licensing System and Coast Guard Vessel Documentation Center.

Last reported at 2016-Jan-04 19:19 UTC. Time now 2016-Feb-10 00:41 UTC.
Position N 29°56' W 092°60'.
Warning: this ship's position is 36 days out of date.

Length 25 m; draft 2.7 m.

Type: Towing. MMSI: 367395270.

Date/timePositionNaut miles runAvg speedWind from/ knotsBaromVisibWave heightAir tempDewpointWater temp
2016-Jan-04 19:19N 29°56' W 092°60'3 4.3
2016-Jan-04 18:34N 29°56' W 093°03'4 4.2
2016-Jan-04 17:34N 29°56' W 093°08'4 4.0
2016-Jan-04 16:30N 29°59' W 093°12'3 3.7
2016-Jan-04 15:34N 30°02' W 093°14'4 4.0
2016-Jan-04 14:34N 30°05' W 093°17'2 2.3
2016-Jan-04 13:34N 30°06' W 093°19'4 3.9
2016-Jan-04 12:34N 30°04' W 093°23'5 5.1
2016-Jan-04 11:33N 30°04' W 093°29'5 5.0
2016-Jan-04 10:34N 30°04' W 093°35'5 5.1
2016-Jan-04 09:34N 30°04' W 093°41'4 4.0
2016-Jan-04 08:33N 30°01' W 093°45'5 4.6
2016-Jan-04 07:33N 29°59' W 093°49'5 4.7
2016-Jan-04 06:33N 29°56' W 093°53'5 4.9
2016-Jan-04 05:33N 29°52' W 093°56'6 4.7
2016-Jan-04 04:22N 29°48' W 094°01'48 3.6
2016-Jan-03 15:08N 29°25' W 094°49'4 6.7
2016-Jan-03 14:33N 29°28' W 094°51'7 6.7
2016-Jan-03 13:33N 29°34' W 094°55'7 6.6
2016-Jan-03 12:33N 29°40' W 094°58'6 6.1
2016-Jan-03 11:33N 29°44' W 095°03'3 0.6
2016-Jan-03 07:32N 29°45' W 095°06'0 0.0
2016-Jan-03 06:33N 29°45' W 095°06'0 0.0
2016-Jan-03 05:33N 29°45' W 095°06'0 0.0
2016-Jan-03 04:32N 29°45' W 095°06'0 0.0
2016-Jan-03 03:33N 29°45' W 095°06'0 0.0
2016-Jan-03 02:26N 29°45' W 095°06'0 0.0
2016-Jan-03 01:30N 29°45' W 095°06'0 0.0
2016-Jan-03 00:22N 29°45' W 095°06'0 0.0
2016-Jan-02 23:33N 29°45' W 095°06'0 0.0
2016-Jan-02 22:26N 29°45' W 095°06'0 0.0
2016-Jan-02 21:32N 29°45' W 095°06'0 0.0
2016-Jan-02 20:33N 29°45' W 095°06'0 0.0
2016-Jan-02 19:33N 29°45' W 095°06'0 0.0
2016-Jan-02 18:33N 29°45' W 095°06'0 0.0
2016-Jan-02 17:33N 29°45' W 095°06'0 0.0
2016-Jan-02 16:26N 29°45' W 095°06'0 0.0
2016-Jan-02 15:21N 29°45' W 095°06'0 0.0
2016-Jan-02 14:33N 29°45' W 095°06'0 0.0
2016-Jan-02 13:29N 29°45' W 095°06'0 0.0
2016-Jan-02 12:33N 29°45' W 095°06'0 0.0
2016-Jan-02 11:33N 29°45' W 095°06'0 0.0
2016-Jan-02 10:33N 29°45' W 095°06'0 0.0
2016-Jan-02 09:31N 29°45' W 095°06'0 0.0
2016-Jan-02 08:32N 29°45' W 095°06'0 0.0
2016-Jan-02 07:31N 29°45' W 095°06'1 0.9
2016-Jan-02 06:33N 29°46' W 095°05'2 1.8
2016-Jan-02 05:32N 29°47' W 095°05'0 0.0
2016-Jan-02 04:33N 29°47' W 095°05'0 0.0
2016-Jan-02 01:31N 29°47' W 095°05'0 0.0
2016-Jan-01 05:13N 29°47' W 095°05'0 0.0
2016-Jan-01 02:33N 29°47' W 095°05'0 0.0
2016-Jan-01 01:32N 29°47' W 095°05'0 0.0
2016-Jan-01 00:32N 29°47' W 095°05'0 0.0
2015-Dec-31 23:29N 29°47' W 095°05'0 0.0
2015-Dec-31 22:33N 29°47' W 095°05'0 0.0
2015-Dec-31 21:33N 29°47' W 095°05'0 0.2
2015-Dec-31 20:33N 29°47' W 095°05'0 0.0
2015-Dec-31 19:16N 29°47' W 095°05'0 0.0
2015-Dec-31 18:33N 29°47' W 095°05'0 0.0
2015-Dec-31 05:33N 29°47' W 095°05'0 0.2
2015-Dec-31 04:30N 29°47' W 095°04'1 0.1
2015-Dec-30 23:18N 29°47' W 095°05'3 3.3
2015-Dec-30 22:33N 29°45' W 095°06'0 0.0
2015-Dec-29 17:27N 29°45' W 095°06'0 0.0
2015-Dec-29 16:33N 29°45' W 095°06'0 0.0
2015-Dec-29 15:33N 29°45' W 095°06'0 0.0
2015-Dec-29 14:32N 29°45' W 095°06'0 0.0
2015-Dec-29 13:33N 29°45' W 095°06'0 0.0
2015-Dec-29 12:33N 29°45' W 095°06'0 0.0
2015-Dec-29 11:33N 29°45' W 095°06'0 0.0
2015-Dec-29 10:33N 29°45' W 095°06'0 0.0
2015-Dec-29 09:33N 29°45' W 095°06'0 0.0
2015-Dec-29 08:33N 29°45' W 095°06'0 0.0
2015-Dec-29 07:29N 29°45' W 095°06'0 0.0
2015-Dec-29 06:33N 29°45' W 095°06'0 0.0
2015-Dec-29 05:33N 29°45' W 095°06'0 0.0
2015-Dec-29 04:32N 29°45' W 095°06'0 0.0
2015-Dec-29 03:33N 29°45' W 095°06'0 0.0
2015-Dec-29 02:31N 29°45' W 095°06'0 0.0
2015-Dec-29 01:31N 29°45' W 095°06'2 1.9
2015-Dec-29 00:33N 29°44' W 095°08'0 0.0
2015-Dec-28 23:33N 29°44' W 095°08'0 0.0
2015-Dec-28 22:33N 29°44' W 095°08'0 0.0
2015-Dec-28 21:33N 29°44' W 095°08'0 0.0
2015-Dec-28 20:32N 29°44' W 095°08'0 0.0
2015-Dec-28 19:34N 29°44' W 095°08'0 0.0
2015-Dec-28 18:33N 29°44' W 095°08'0 0.0
2015-Dec-28 17:31N 29°44' W 095°08'0 0.0
2015-Dec-28 11:06N 29°44' W 095°08'0 0.0
2015-Dec-28 10:27N 29°44' W 095°08'0 0.0
2015-Dec-28 09:31N 29°44' W 095°08'0 0.0
2015-Dec-28 08:34N 29°44' W 095°08'  
2015-Dec-25 20:31N 29°46' W 095°05'2 2.0
2015-Dec-25 19:30N 29°45' W 095°06'  
Track history (hours):
 
Tides and Currents Weather Stations Pressure Air Temp Water Temp Dewpoint Dewpoint Depression Visibility Wind Speed Wind Dir Waves Ship Positions

M/V Alton St. Amant

Owner: The Barge Investment Group Five, L.L.C., Harahan, LA. More information available from US FCC via Universal Licensing System and Coast Guard Vessel Documentation Center.

Last reported at 2016-Jan-04 19:19 UTC. Time now 2016-Feb-10 00:41 UTC.
Position N 29°56' W 092°60'.
Warning: this ship's position is 36 days out of date.

Length 25 m; draft 2.7 m.

Type: Towing. MMSI: 367395270.

Date/timePositionNaut miles runAvg speedWind from/ knotsBaromVisibWave heightAir tempDewpointWater temp
2016-Jan-04 19:19N 29°56' W 092°60'3 4.3
2016-Jan-04 18:34N 29°56' W 093°03'4 4.2
2016-Jan-04 17:34N 29°56' W 093°08'4 4.0
2016-Jan-04 16:30N 29°59' W 093°12'3 3.7
2016-Jan-04 15:34N 30°02' W 093°14'4 4.0
2016-Jan-04 14:34N 30°05' W 093°17'2 2.3
2016-Jan-04 13:34N 30°06' W 093°19'4 3.9
2016-Jan-04 12:34N 30°04' W 093°23'5 5.1
2016-Jan-04 11:33N 30°04' W 093°29'5 5.0
2016-Jan-04 10:34N 30°04' W 093°35'5 5.1
2016-Jan-04 09:34N 30°04' W 093°41'4 4.0
2016-Jan-04 08:33N 30°01' W 093°45'5 4.6
2016-Jan-04 07:33N 29°59' W 093°49'5 4.7
2016-Jan-04 06:33N 29°56' W 093°53'5 4.9
2016-Jan-04 05:33N 29°52' W 093°56'6 4.7
2016-Jan-04 04:22N 29°48' W 094°01'48 3.6
2016-Jan-03 15:08N 29°25' W 094°49'4 6.7
2016-Jan-03 14:33N 29°28' W 094°51'7 6.7
2016-Jan-03 13:33N 29°34' W 094°55'7 6.6
2016-Jan-03 12:33N 29°40' W 094°58'6 6.1
2016-Jan-03 11:33N 29°44' W 095°03'3 0.6
2016-Jan-03 07:32N 29°45' W 095°06'0 0.0
2016-Jan-03 06:33N 29°45' W 095°06'0 0.0
2016-Jan-03 05:33N 29°45' W 095°06'0 0.0
2016-Jan-03 04:32N 29°45' W 095°06'0 0.0
2016-Jan-03 03:33N 29°45' W 095°06'0 0.0
2016-Jan-03 02:26N 29°45' W 095°06'0 0.0
2016-Jan-03 01:30N 29°45' W 095°06'0 0.0
2016-Jan-03 00:22N 29°45' W 095°06'0 0.0
2016-Jan-02 23:33N 29°45' W 095°06'0 0.0
2016-Jan-02 22:26N 29°45' W 095°06'0 0.0
2016-Jan-02 21:32N 29°45' W 095°06'0 0.0
2016-Jan-02 20:33N 29°45' W 095°06'0 0.0
2016-Jan-02 19:33N 29°45' W 095°06'0 0.0
2016-Jan-02 18:33N 29°45' W 095°06'0 0.0
2016-Jan-02 17:33N 29°45' W 095°06'0 0.0
2016-Jan-02 16:26N 29°45' W 095°06'0 0.0
2016-Jan-02 15:21N 29°45' W 095°06'0 0.0
2016-Jan-02 14:33N 29°45' W 095°06'0 0.0
2016-Jan-02 13:29N 29°45' W 095°06'0 0.0
2016-Jan-02 12:33N 29°45' W 095°06'0 0.0
2016-Jan-02 11:33N 29°45' W 095°06'0 0.0
2016-Jan-02 10:33N 29°45' W 095°06'0 0.0
2016-Jan-02 09:31N 29°45' W 095°06'0 0.0
2016-Jan-02 08:32N 29°45' W 095°06'0 0.0
2016-Jan-02 07:31N 29°45' W 095°06'1 0.9
2016-Jan-02 06:33N 29°46' W 095°05'2 1.8
2016-Jan-02 05:32N 29°47' W 095°05'0 0.0
2016-Jan-02 04:33N 29°47' W 095°05'0 0.0
2016-Jan-02 01:31N 29°47' W 095°05'0 0.0
2016-Jan-01 05:13N 29°47' W 095°05'0 0.0
2016-Jan-01 02:33N 29°47' W 095°05'0 0.0
2016-Jan-01 01:32N 29°47' W 095°05'0 0.0
2016-Jan-01 00:32N 29°47' W 095°05'0 0.0
2015-Dec-31 23:29N 29°47' W 095°05'0 0.0
2015-Dec-31 22:33N 29°47' W 095°05'0 0.0
2015-Dec-31 21:33N 29°47' W 095°05'0 0.2
2015-Dec-31 20:33N 29°47' W 095°05'0 0.0
2015-Dec-31 19:16N 29°47' W 095°05'0 0.0
2015-Dec-31 18:33N 29°47' W 095°05'0 0.0
2015-Dec-31 05:33N 29°47' W 095°05'0 0.2
2015-Dec-31 04:30N 29°47' W 095°04'1 0.1
2015-Dec-30 23:18N 29°47' W 095°05'3 3.3
2015-Dec-30 22:33N 29°45' W 095°06'0 0.0
2015-Dec-29 17:27N 29°45' W 095°06'0 0.0
2015-Dec-29 16:33N 29°45' W 095°06'0 0.0
2015-Dec-29 15:33N 29°45' W 095°06'0 0.0
2015-Dec-29 14:32N 29°45' W 095°06'0 0.0
2015-Dec-29 13:33N 29°45' W 095°06'0 0.0
2015-Dec-29 12:33N 29°45' W 095°06'0 0.0
2015-Dec-29 11:33N 29°45' W 095°06'0 0.0
2015-Dec-29 10:33N 29°45' W 095°06'0 0.0
2015-Dec-29 09:33N 29°45' W 095°06'0 0.0
2015-Dec-29 08:33N 29°45' W 095°06'0 0.0
2015-Dec-29 07:29N 29°45' W 095°06'0 0.0
2015-Dec-29 06:33N 29°45' W 095°06'0 0.0
2015-Dec-29 05:33N 29°45' W 095°06'0 0.0
2015-Dec-29 04:32N 29°45' W 095°06'0 0.0
2015-Dec-29 03:33N 29°45' W 095°06'0 0.0
2015-Dec-29 02:31N 29°45' W 095°06'0 0.0
2015-Dec-29 01:31N 29°45' W 095°06'2 1.9
2015-Dec-29 00:33N 29°44' W 095°08'0 0.0
2015-Dec-28 23:33N 29°44' W 095°08'0 0.0
2015-Dec-28 22:33N 29°44' W 095°08'0 0.0
2015-Dec-28 21:33N 29°44' W 095°08'0 0.0
2015-Dec-28 20:32N 29°44' W 095°08'0 0.0
2015-Dec-28 19:34N 29°44' W 095°08'0 0.0
2015-Dec-28 18:33N 29°44' W 095°08'0 0.0
2015-Dec-28 17:31N 29°44' W 095°08'0 0.0
2015-Dec-28 11:06N 29°44' W 095°08'0 0.0
2015-Dec-28 10:27N 29°44' W 095°08'0 0.0
2015-Dec-28 09:31N 29°44' W 095°08'0 0.0
2015-Dec-28 08:34N 29°44' W 095°08'  
2015-Dec-25 20:31N 29°46' W 095°05'2 2.0
2015-Dec-25 19:30N 29°45' W 095°06'  

Dump ship's entire track history